10chiemaru — JD2376 — position and weather

sailwx.info

Track history (hours):
 
Tides and Currents Weather Stations Pressure Air Temp Water Temp Dewpoint Dewpoint Depression Visibility Wind Speed Wind Dir Waves Ship Positions

10chiemaru

Last reported at 2015-Jan-29 06:33 UTC. Time now 2015-Jan-30 09:26 UTC.
Position N 35°00' E 139°27'.

Length 72 m; draft 5.2 m.

Type: Ship. MMSI: 431000147.

Date/timePositionNaut miles runAvg speedWind from/ knotsBaromVisibWave heightAir tempDewpointWater temp
2015-Jan-29 06:33N 35°00' E 139°27'1212.0
2015-Jan-29 05:34N 35°06' E 139°40'1111.2
2015-Jan-29 04:33N 35°16' E 139°45'1010.1
2015-Jan-29 03:33N 35°27' E 139°46'12 1.9
2015-Jan-28 21:30N 35°32' E 139°59'0 0.0
2015-Jan-28 17:29N 35°32' E 139°59'1 0.5
2015-Jan-28 15:33N 35°31' E 139°58'1211.8
2015-Jan-28 14:33N 35°24' E 139°46'1110.9
2015-Jan-28 13:33N 35°13' E 139°47'1110.9
2015-Jan-28 12:33N 35°03' E 139°42'49 3.4
2015-Jan-27 22:21N 35°05' E 138°43'59 6.4
2015-Jan-27 13:10N 34°50' E 139°52'8 0.3
2015-Jan-26 08:30N 34°54' E 140°01'1112.0
2015-Jan-26 07:33N 34°52' E 139°47'1111.3
2015-Jan-26 06:33N 35°03' E 139°43'1212.1
2015-Jan-26 05:33N 35°15' E 139°46'8 8.4
2015-Jan-26 04:34N 35°23' E 139°44'4 3.8
2015-Jan-26 03:34N 35°25' E 139°39'0 0.0
2015-Jan-26 02:34N 35°25' E 139°39'0 0.0
2015-Jan-26 01:34N 35°25' E 139°39'0 0.0
2015-Jan-26 00:34N 35°25' E 139°39'0 0.0
2015-Jan-25 23:34N 35°25' E 139°39'2 2.2
2015-Jan-25 22:34N 35°23' E 139°41'10 9.9
2015-Jan-25 21:33N 35°14' E 139°47'1211.7
2015-Jan-25 20:33N 35°03' E 139°44'9 8.6
2015-Jan-25 19:33N 34°55' E 139°38'  
Track history (hours):
 
Tides and Currents Weather Stations Pressure Air Temp Water Temp Dewpoint Dewpoint Depression Visibility Wind Speed Wind Dir Waves Ship Positions

10chiemaru

Last reported at 2015-Jan-29 06:33 UTC. Time now 2015-Jan-30 09:26 UTC.
Position N 35°00' E 139°27'.

Length 72 m; draft 5.2 m.

Type: Ship. MMSI: 431000147.

Date/timePositionNaut miles runAvg speedWind from/ knotsBaromVisibWave heightAir tempDewpointWater temp
2015-Jan-29 06:33N 35°00' E 139°27'1212.0
2015-Jan-29 05:34N 35°06' E 139°40'1111.2
2015-Jan-29 04:33N 35°16' E 139°45'1010.1
2015-Jan-29 03:33N 35°27' E 139°46'12 1.9
2015-Jan-28 21:30N 35°32' E 139°59'0 0.0
2015-Jan-28 17:29N 35°32' E 139°59'1 0.5
2015-Jan-28 15:33N 35°31' E 139°58'1211.8
2015-Jan-28 14:33N 35°24' E 139°46'1110.9
2015-Jan-28 13:33N 35°13' E 139°47'1110.9
2015-Jan-28 12:33N 35°03' E 139°42'49 3.4
2015-Jan-27 22:21N 35°05' E 138°43'59 6.4
2015-Jan-27 13:10N 34°50' E 139°52'8 0.3
2015-Jan-26 08:30N 34°54' E 140°01'1112.0
2015-Jan-26 07:33N 34°52' E 139°47'1111.3
2015-Jan-26 06:33N 35°03' E 139°43'1212.1
2015-Jan-26 05:33N 35°15' E 139°46'8 8.4
2015-Jan-26 04:34N 35°23' E 139°44'4 3.8
2015-Jan-26 03:34N 35°25' E 139°39'0 0.0
2015-Jan-26 02:34N 35°25' E 139°39'0 0.0
2015-Jan-26 01:34N 35°25' E 139°39'0 0.0
2015-Jan-26 00:34N 35°25' E 139°39'0 0.0
2015-Jan-25 23:34N 35°25' E 139°39'2 2.2
2015-Jan-25 22:34N 35°23' E 139°41'10 9.9
2015-Jan-25 21:33N 35°14' E 139°47'1211.7
2015-Jan-25 20:33N 35°03' E 139°44'9 8.6
2015-Jan-25 19:33N 34°55' E 139°38'  

Dump ship's entire track history